Time;durP1;ratioP1;P1;durP2;ratioP2;P2;SDS_P1;SDS_P2;PMS_P1;PMS_P2;Temp;Humidity;BMP_temperature;BMP_pressure;BME280_temperature;BME280_humidity;BME280_pressure;Samples;Min_cycle;Max_cycle;Signal;HPM_P1;HPM_P2
2022/07/20 00:00:49;;;;;;;8.52;3.83;;;26.40;69.90;;;;;;5081938;28;20128;-63
2022/07/20 00:03:15;;;;;;;8.85;3.20;;;26.40;70.00;;;;;;5073014;28;20409;-62
2022/07/20 00:05:42;;;;;;;5.68;2.90;;;26.40;70.00;;;;;;5071960;28;20141;-61
2022/07/20 00:08:09;;;;;;;6.63;3.20;;;26.40;70.00;;;;;;5070893;28;20041;-61
2022/07/20 00:13:21;;;;;;;8.32;3.40;;;26.40;70.00;;;;;;5063663;28;20408;-62
2022/07/20 00:15:47;;;;;;;7.00;3.28;;;26.40;70.10;;;;;;5071610;28;20044;-62
2022/07/20 00:18:13;;;;;;;8.52;2.90;;;26.40;70.30;;;;;;5061511;28;20037;-61
2022/07/20 00:20:40;;;;;;;9.80;3.33;;;26.30;70.20;;;;;;5063183;28;20394;-61
2022/07/20 00:23:06;;;;;;;7.05;2.85;;;26.30;70.40;;;;;;5072068;28;20044;-61
2022/07/20 00:25:32;;;;;;;6.05;3.55;;;26.30;70.30;;;;;;5070926;28;20074;-62
2022/07/20 00:27:58;;;;;;;8.75;3.20;;;26.20;70.40;;;;;;5067398;28;20052;-61
2022/07/20 00:30:24;;;;;;;7.40;3.25;;;26.10;70.50;;;;;;5070190;28;20037;-62
2022/07/20 00:32:50;;;;;;;6.20;2.80;;;26.10;70.60;;;;;;5054516;28;20055;-61
2022/07/20 00:35:16;;;;;;;6.72;3.10;;;26.10;70.60;;;;;;5071783;28;20056;-62
2022/07/20 00:37:44;;;;;;;6.00;3.42;;;26.00;70.60;;;;;;5069266;28;20036;-61
2022/07/20 00:40:12;;;;;;;6.72;3.10;;;26.00;70.60;;;;;;5067204;28;20079;-61
2022/07/20 00:42:38;;;;;;;7.30;3.17;;;26.00;70.90;;;;;;5072468;28;20048;-61
2022/07/20 00:45:06;;;;;;;8.88;3.10;;;26.00;71.00;;;;;;5070811;28;20547;-61
2022/07/20 00:47:32;;;;;;;7.90;3.30;;;25.90;70.80;;;;;;5071951;28;20052;-61
2022/07/20 00:49:58;;;;;;;8.05;3.40;;;25.90;71.10;;;;;;5067815;28;20079;-61
2022/07/20 00:52:24;;;;;;;10.27;3.30;;;25.80;71.00;;;;;;5063308;28;20443;-61
2022/07/20 00:54:53;;;;;;;5.10;3.22;;;25.80;71.10;;;;;;5063561;28;20102;-61
2022/07/20 00:57:19;;;;;;;6.30;3.20;;;25.70;71.10;;;;;;5059525;28;20045;-61
2022/07/20 00:59:45;;;;;;;9.50;3.10;;;25.70;71.20;;;;;;5072240;28;20080;-61
2022/07/20 01:02:11;;;;;;;7.88;3.30;;;25.60;71.20;;;;;;5069890;28;20084;-63
2022/07/20 01:04:37;;;;;;;6.28;3.38;;;25.60;71.30;;;;;;5071037;28;20090;-61
2022/07/20 01:07:03;;;;;;;9.60;3.45;;;25.60;71.40;;;;;;5064383;28;20046;-62
2022/07/20 01:09:29;;;;;;;12.68;3.30;;;25.50;71.30;;;;;;5071406;28;20044;-62
2022/07/20 01:11:55;;;;;;;7.93;3.45;;;25.50;71.50;;;;;;5061016;28;20075;-62
2022/07/20 01:14:20;;;;;;;12.82;3.15;;;25.40;71.40;;;;;;5070311;28;20402;-62
2022/07/20 01:16:46;;;;;;;6.60;3.15;;;25.40;71.60;;;;;;5072020;28;20083;-62
2022/07/20 01:19:12;;;;;;;10.00;3.30;;;25.40;71.70;;;;;;5070118;28;20037;-63
2022/07/20 01:21:43;;;;;;;6.10;2.95;;;25.30;71.80;;;;;;5044474;28;20072;-61
2022/07/20 01:24:11;;;;;;;6.55;3.00;;;25.20;71.90;;;;;;5070993;28;20125;-63
2022/07/20 01:26:39;;;;;;;7.60;3.13;;;25.20;72.10;;;;;;5070477;28;20442;-62
2022/07/20 01:29:05;;;;;;;6.32;3.15;;;25.20;71.90;;;;;;5055953;28;20056;-62
2022/07/20 01:31:31;;;;;;;9.13;3.17;;;25.20;72.00;;;;;;5053907;28;20052;-61
2022/07/20 01:33:56;;;;;;;7.63;2.92;;;25.10;72.10;;;;;;5063738;28;20056;-61
2022/07/20 01:36:22;;;;;;;6.47;3.05;;;25.10;72.20;;;;;;5053890;28;20041;-62
2022/07/20 01:38:48;;;;;;;4.88;3.40;;;25.00;72.30;;;;;;5059889;28;20052;-62
2022/07/20 01:41:14;;;;;;;9.77;3.22;;;25.00;72.20;;;;;;5070926;28;20071;-61
2022/07/20 01:43:39;;;;;;;5.90;3.38;;;24.90;72.20;;;;;;5068346;28;20067;-62
2022/07/20 01:46:05;;;;;;;7.38;3.22;;;24.90;72.90;;;;;;5066803;28;20117;-62
2022/07/20 01:48:31;;;;;;;6.78;3.95;;;24.90;72.70;;;;;;5063154;28;20098;-62
2022/07/20 01:50:57;;;;;;;5.97;3.67;;;24.80;73.40;;;;;;5065314;28;20098;-62
2022/07/20 01:53:22;;;;;;;10.68;4.35;;;24.80;73.20;;;;;;5066915;28;20029;-62
2022/07/20 01:55:48;;;;;;;8.07;3.83;;;24.70;73.80;;;;;;5069950;28;20062;-61
2022/07/20 01:58:14;;;;;;;9.27;4.00;;;24.70;73.90;;;;;;5069606;28;20052;-61
2022/07/20 02:00:39;;;;;;;6.57;3.92;;;24.60;73.80;;;;;;5070376;28;20051;-61
2022/07/20 02:03:05;;;;;;;9.93;4.00;;;24.50;74.10;;;;;;5056596;28;20049;-62
2022/07/20 02:05:31;;;;;;;8.93;4.47;;;24.50;73.80;;;;;;5065979;28;20124;-63
2022/07/20 02:07:56;;;;;;;7.40;3.92;;;24.50;74.00;;;;;;5069370;28;20086;-61
2022/07/20 02:10:22;;;;;;;9.48;4.30;;;24.40;74.10;;;;;;5061806;28;20045;-64
2022/07/20 02:12:48;;;;;;;9.32;4.80;;;24.40;74.30;;;;;;5068654;28;20127;-62
2022/07/20 02:16:14;;;;;;;8.93;4.30;;;24.30;74.30;;;;;;5068656;28;20496;-62
2022/07/20 02:18:03;;;;;;;6.68;4.40;;;24.30;74.60;;;;;;5070430;28;20152;-62
2022/07/20 02:20:29;;;;;;;10.82;4.20;;;24.20;74.90;;;;;;5070019;28;20402;-62
2022/07/20 02:22:54;;;;;;;12.77;4.25;;;24.20;74.60;;;;;;5066441;28;20040;-62
2022/07/20 02:25:20;;;;;;;9.48;4.50;;;24.20;74.70;;;;;;5068806;28;20036;-62
2022/07/20 02:27:46;;;;;;;9.93;4.45;;;24.10;74.60;;;;;;5068774;28;20070;-62
2022/07/20 02:30:12;;;;;;;10.68;4.15;;;24.10;75.60;;;;;;5069034;28;20379;-62
2022/07/20 02:32:37;;;;;;;7.22;4.45;;;24.10;75.50;;;;;;5070006;28;20044;-62
2022/07/20 02:35:03;;;;;;;6.85;4.20;;;24.00;75.00;;;;;;5068996;28;20044;-62
2022/07/20 02:37:29;;;;;;;6.90;4.00;;;24.00;75.10;;;;;;5058024;28;20055;-61
2022/07/20 02:39:54;;;;;;;7.30;4.20;;;24.00;75.20;;;;;;5070305;28;20053;-62
2022/07/20 02:42:20;;;;;;;7.88;4.20;;;24.00;75.70;;;;;;5068841;28;20093;-62
2022/07/20 02:44:46;;;;;;;10.10;4.57;;;23.90;75.50;;;;;;5068139;28;20123;-62
2022/07/20 02:47:11;;;;;;;10.25;4.70;;;23.90;76.20;;;;;;5068652;28;20048;-62
2022/07/20 02:49:37;;;;;;;8.93;3.92;;;23.80;75.80;;;;;;5068863;28;20036;-62
2022/07/20 02:52:03;;;;;;;7.32;4.60;;;23.80;75.60;;;;;;5067530;28;20123;-63
2022/07/20 02:54:28;;;;;;;9.27;4.00;;;23.70;75.90;;;;;;5067962;28;20064;-64
2022/07/20 02:56:54;;;;;;;8.02;4.00;;;23.70;75.80;;;;;;5063565;28;20465;-62
2022/07/20 02:59:20;;;;;;;8.20;3.85;;;23.70;76.00;;;;;;5070069;28;20029;-62
2022/07/20 03:01:45;;;;;;;7.80;3.65;;;23.70;75.80;;;;;;5067493;28;20044;-62
2022/07/20 03:04:11;;;;;;;6.78;3.83;;;23.60;75.70;;;;;;5068741;28;20060;-62
2022/07/20 03:06:37;;;;;;;6.40;3.63;;;23.60;75.70;;;;;;5069348;28;20147;-62
2022/07/20 03:09:03;;;;;;;6.05;3.45;;;23.60;75.90;;;;;;5068062;28;20056;-62
2022/07/20 03:11:28;;;;;;;10.57;3.58;;;23.60;75.80;;;;;;5068676;28;20044;-62
2022/07/20 03:13:54;;;;;;;5.15;3.30;;;23.60;75.60;;;;;;5068668;28;20052;-62
2022/07/20 03:16:20;;;;;;;8.93;3.58;;;23.60;75.50;;;;;;5069818;28;20047;-62
2022/07/20 03:18:45;;;;;;;8.50;3.35;;;23.60;75.40;;;;;;5063033;28;20143;-62
2022/07/20 03:21:11;;;;;;;6.28;3.55;;;23.60;75.30;;;;;;5068406;28;20040;-64
2022/07/20 03:23:37;;;;;;;5.47;3.40;;;23.60;75.20;;;;;;5071856;28;20045;-62
2022/07/20 03:26:02;;;;;;;7.50;3.17;;;23.60;74.90;;;;;;5072082;28;20446;-63
2022/07/20 03:28:28;;;;;;;6.43;3.42;;;23.60;75.00;;;;;;5072162;28;20068;-62
2022/07/20 03:30:54;;;;;;;9.05;3.60;;;23.60;75.10;;;;;;5073043;28;20500;-63
2022/07/20 03:33:19;;;;;;;5.70;3.15;;;23.60;75.10;;;;;;5073277;28;20072;-61
2022/07/20 03:35:45;;;;;;;7.45;3.38;;;23.60;75.40;;;;;;5068436;28;20036;-62
2022/07/20 03:38:11;;;;;;;5.82;3.40;;;23.50;75.20;;;;;;5070909;28;20056;-62
2022/07/20 03:40:36;;;;;;;5.45;2.97;;;23.50;75.80;;;;;;5071440;28;20045;-64
2022/07/20 03:43:02;;;;;;;7.53;3.47;;;23.50;75.70;;;;;;5067441;28;20091;-62
2022/07/20 03:45:28;;;;;;;6.15;3.30;;;23.50;75.80;;;;;;5064699;28;20045;-61
2022/07/20 03:47:54;;;;;;;5.68;3.10;;;23.50;75.70;;;;;;5070432;28;20044;-62
2022/07/20 03:50:19;;;;;;;8.82;3.60;;;23.40;75.60;;;;;;5071606;28;20049;-61
2022/07/20 03:52:45;;;;;;;6.28;3.38;;;23.40;75.80;;;;;;5072311;28;20055;-61
2022/07/20 03:55:11;;;;;;;5.32;3.00;;;23.40;76.20;;;;;;5073398;28;20064;-61
2022/07/20 03:57:36;;;;;;;7.00;3.17;;;23.40;76.10;;;;;;5073156;28;20079;-61
2022/07/20 04:00:03;;;;;;;5.95;3.17;;;23.30;76.40;;;;;;5070758;28;20116;-61
2022/07/20 04:02:29;;;;;;;7.57;3.17;;;23.30;76.30;;;;;;5072162;28;20478;-62
2022/07/20 04:04:54;;;;;;;4.43;3.10;;;23.30;76.40;;;;;;5071940;28;20048;-62
2022/07/20 04:07:20;;;;;;;6.95;3.28;;;23.20;76.60;;;;;;5072051;28;20194;-62
2022/07/20 04:09:48;;;;;;;10.25;4.18;;;23.20;76.50;;;;;;5075521;28;20839;-62
2022/07/20 04:12:18;;;;;;;6.10;3.72;;;23.20;76.80;;;;;;5072818;28;20204;-62
2022/07/20 04:14:45;;;;;;;7.93;3.70;;;23.20;76.60;;;;;;5071274;28;20417;-63
2022/07/20 04:17:11;;;;;;;7.32;3.35;;;23.20;76.80;;;;;;5064876;28;20636;-62
2022/07/20 04:19:37;;;;;;;8.05;3.60;;;23.20;76.70;;;;;;5072846;28;20165;-62
2022/07/20 04:22:03;;;;;;;6.63;3.28;;;23.20;77.30;;;;;;5071517;28;20036;-62
2022/07/20 04:24:29;;;;;;;13.13;3.40;;;23.20;77.10;;;;;;5074458;28;20133;-62
2022/07/20 04:26:55;;;;;;;8.57;3.55;;;23.20;76.90;;;;;;5072180;28;20513;-62
2022/07/20 04:29:22;;;;;;;5.55;3.10;;;23.20;77.00;;;;;;5072226;28;20040;-62
2022/07/20 04:31:48;;;;;;;7.68;3.40;;;23.20;77.10;;;;;;5071816;28;20052;-63
2022/07/20 04:34:14;;;;;;;7.60;3.58;;;23.30;77.10;;;;;;5071088;28;20053;-63
2022/07/20 04:36:40;;;;;;;8.85;3.45;;;23.30;77.20;;;;;;5063515;28;20146;-62
2022/07/20 04:39:05;;;;;;;6.57;3.30;;;23.30;77.20;;;;;;5066459;28;20052;-62
2022/07/20 04:41:31;;;;;;;6.18;3.08;;;23.40;77.10;;;;;;5070468;28;20045;-61
2022/07/20 04:43:57;;;;;;;8.50;4.15;;;23.50;77.20;;;;;;5071445;28;20060;-61
2022/07/20 04:46:23;;;;;;;7.35;3.40;;;23.50;77.10;;;;;;5070668;28;20066;-62
2022/07/20 04:48:49;;;;;;;8.93;3.40;;;23.70;77.10;;;;;;5070855;28;20401;-63
2022/07/20 04:51:14;;;;;;;6.57;3.17;;;23.80;77.00;;;;;;5071503;28;20110;-61
2022/07/20 04:53:40;;;;;;;8.07;3.60;;;24.00;76.80;;;;;;5071289;28;20136;-61
2022/07/20 04:56:06;;;;;;;10.90;3.88;;;24.20;76.70;;;;;;5071322;28;20382;-62
2022/07/20 04:58:32;;;;;;;9.63;4.05;;;24.80;76.20;;;;;;5071688;28;20052;-62
2022/07/20 05:00:58;;;;;;;10.88;4.28;;;25.50;75.60;;;;;;5071343;28;20044;-62
2022/07/20 05:03:24;;;;;;;6.95;3.53;;;26.10;72.50;;;;;;5070266;28;20040;-61
2022/07/20 05:05:50;;;;;;;9.48;3.85;;;26.60;72.00;;;;;;5071448;28;20170;-64
2022/07/20 05:08:15;;;;;;;6.72;3.47;;;27.10;72.60;;;;;;5071189;28;20048;-61
2022/07/20 05:10:41;;;;;;;6.60;3.78;;;27.40;71.30;;;;;;5055752;28;20557;-62
2022/07/20 05:13:07;;;;;;;6.25;3.35;;;27.80;71.70;;;;;;5055440;28;20394;-61
2022/07/20 05:15:32;;;;;;;6.97;3.45;;;28.10;70.70;;;;;;5056330;28;20048;-61
2022/07/20 05:17:58;;;;;;;10.45;3.70;;;28.60;70.70;;;;;;5056422;28;20049;-62
2022/07/20 05:20:24;;;;;;;9.60;3.55;;;28.70;68.60;;;;;;5050086;28;20045;-62
2022/07/20 05:22:49;;;;;;;5.30;3.47;;;28.90;69.30;;;;;;5050804;28;20094;-63
2022/07/20 05:25:15;;;;;;;8.25;3.60;;;29.10;68.60;;;;;;5069495;28;20052;-62
2022/07/20 05:27:41;;;;;;;9.07;3.60;;;29.50;69.20;;;;;;5070113;28;20051;-62
2022/07/20 05:30:07;;;;;;;12.95;3.80;;;30.00;69.10;;;;;;5070617;28;20386;-63
2022/07/20 05:32:34;;;;;;;8.40;3.88;;;30.50;66.70;;;;;;5070994;28;20498;-62
2022/07/20 05:34:59;;;;;;;9.05;3.20;;;31.00;68.10;;;;;;5070660;28;20397;-62
2022/07/20 05:37:25;;;;;;;9.07;3.38;;;31.70;67.80;;;;;;5060670;28;20040;-62
2022/07/20 05:39:51;;;;;;;7.35;3.45;;;32.20;66.80;;;;;;5063562;28;20047;-62
2022/07/20 05:42:17;;;;;;;11.55;4.00;;;32.70;65.40;;;;;;5058249;28;20068;-62
2022/07/20 05:44:42;;;;;;;8.45;3.17;;;33.20;65.50;;;;;;5060021;28;20052;-63
2022/07/20 05:47:09;;;;;;;9.05;3.40;;;33.80;66.20;;;;;;5058620;28;20486;-63
2022/07/20 05:49:36;;;;;;;8.35;3.60;;;34.30;65.10;;;;;;5065061;28;20048;-63
2022/07/20 05:52:03;;;;;;;8.15;3.60;;;34.60;64.70;;;;;;5056252;28;20390;-63
2022/07/20 05:54:29;;;;;;;5.65;3.10;;;34.90;64.70;;;;;;5059156;28;20047;-62
2022/07/20 05:56:54;;;;;;;8.05;3.28;;;35.00;63.80;;;;;;5070303;28;20048;-63
2022/07/20 05:59:20;;;;;;;9.95;3.15;;;35.40;64.10;;;;;;5065431;28;20103;-63
2022/07/20 06:01:46;;;;;;;11.50;3.95;;;35.60;62.90;;;;;;5053323;28;20053;-62
2022/07/20 06:04:12;;;;;;;12.98;3.35;;;35.90;62.30;;;;;;5066704;28;20417;-62
2022/07/20 06:06:38;;;;;;;6.45;3.05;;;36.00;63.30;;;;;;5056536;28;20049;-63
2022/07/20 06:09:05;;;;;;;6.43;3.10;;;36.20;63.10;;;;;;5053965;28;20416;-62
2022/07/20 06:11:32;;;;;;;7.40;3.58;;;36.30;61.20;;;;;;5057148;28;20040;-63
2022/07/20 06:13:58;;;;;;;5.50;3.20;;;36.70;61.40;;;;;;5064357;28;20420;-63
2022/07/20 06:16:23;;;;;;;6.68;3.15;;;36.60;60.40;;;;;;5050118;28;20049;-63
2022/07/20 06:18:49;;;;;;;7.38;3.30;;;36.70;60.10;;;;;;5055456;28;20044;-62
2022/07/20 06:21:15;;;;;;;7.55;2.80;;;36.80;61.00;;;;;;5069025;28;20126;-62
2022/07/20 06:23:41;;;;;;;6.78;2.95;;;37.10;59.90;;;;;;5073746;28;20113;-64
2022/07/20 06:26:07;;;;;;;6.40;3.00;;;37.20;60.00;;;;;;5069362;28;20424;-63
2022/07/20 06:28:34;;;;;;;6.75;3.00;;;37.10;60.00;;;;;;5070149;28;20141;-62
2022/07/20 06:31:00;;;;;;;9.32;3.38;;;37.30;59.90;;;;;;5054641;28;20120;-63
2022/07/20 06:33:26;;;;;;;7.93;3.22;;;37.40;59.60;;;;;;5055279;28;20565;-63
2022/07/20 06:35:52;;;;;;;6.93;2.97;;;37.40;59.30;;;;;;5050446;28;20126;-63
2022/07/20 06:38:17;;;;;;;7.63;3.15;;;37.40;59.70;;;;;;5058037;28;20037;-62
2022/07/20 06:40:43;;;;;;;7.40;3.40;;;37.50;59.80;;;;;;5070725;28;20116;-63
2022/07/20 06:43:09;;;;;;;11.23;3.45;;;37.80;58.90;;;;;;5068048;28;20052;-63
2022/07/20 06:45:35;;;;;;;6.20;3.20;;;37.90;58.90;;;;;;5066903;28;20045;-62
2022/07/20 06:48:00;;;;;;;5.95;2.80;;;38.10;59.20;;;;;;5063714;28;20040;-62
2022/07/20 06:50:26;;;;;;;4.82;3.00;;;38.30;58.80;;;;;;5055256;28;20528;-62
2022/07/20 06:52:52;;;;;;;7.70;3.13;;;38.50;58.30;;;;;;5051378;28;20060;-61
2022/07/20 06:55:18;;;;;;;10.88;3.17;;;38.60;58.40;;;;;;5057787;28;20052;-62
2022/07/20 06:57:44;;;;;;;6.32;2.85;;;38.80;58.30;;;;;;5053092;28;20045;-63
2022/07/20 07:00:11;;;;;;;10.45;3.55;;;38.90;58.50;;;;;;5052988;28;20037;-65
2022/07/20 07:02:37;;;;;;;7.00;3.05;;;39.20;58.90;;;;;;5060822;28;20107;-62
2022/07/20 07:05:04;;;;;;;10.52;3.35;;;39.40;57.80;;;;;;5060421;28;20088;-62
2022/07/20 07:07:29;;;;;;;6.72;3.38;;;39.50;58.30;;;;;;5059149;28;20558;-62
2022/07/20 07:09:55;;;;;;;6.60;3.08;;;39.50;58.20;;;;;;5054143;28;20537;-62
2022/07/20 07:12:21;;;;;;;9.27;3.20;;;39.70;58.40;;;;;;5053322;28;20051;-62
2022/07/20 07:14:47;;;;;;;4.20;2.78;;;39.90;58.00;;;;;;5057817;28;20044;-62
2022/07/20 07:17:12;;;;;;;9.85;3.40;;;40.10;58.60;;;;;;5053794;28;20131;-64
2022/07/20 07:19:42;;;;;;;10.18;3.55;;;40.20;58.40;;;;;;5052680;28;20414;-62
2022/07/20 07:22:08;;;;;;;5.63;3.17;;;;;;;;;;5058792;28;20090;-64
2022/07/20 07:24:34;;;;;;;10.77;3.78;;;40.70;57.50;;;;;;5055931;28;20536;-62
2022/07/20 07:27:00;;;;;;;5.75;3.10;;;40.80;56.80;;;;;;5063011;28;20041;-62
2022/07/20 07:29:26;;;;;;;10.30;3.42;;;40.70;57.70;;;;;;5053179;28;20045;-62
2022/07/20 07:31:53;;;;;;;7.15;3.50;;;41.00;57.40;;;;;;5053612;28;20048;-63
2022/07/20 07:34:19;;;;;;;8.45;3.40;;;41.10;57.10;;;;;;5059168;28;20129;-62
2022/07/20 07:36:45;;;;;;;8.57;3.55;;;41.30;57.40;;;;;;5063820;28;20198;-63
2022/07/20 07:39:10;;;;;;;7.68;3.78;;;41.30;56.90;;;;;;5073100;28;20505;-63
2022/07/20 07:41:36;;;;;;;10.52;3.92;;;41.40;57.20;;;;;;5072624;28;20076;-64
2022/07/20 07:44:02;;;;;;;7.45;3.67;;;41.50;56.90;;;;;;5072195;28;20048;-62
2022/07/20 07:46:28;;;;;;;8.65;3.97;;;41.40;57.30;;;;;;5053740;28;20045;-63
2022/07/20 07:48:54;;;;;;;7.20;3.58;;;41.30;57.50;;;;;;5054786;28;20044;-63
2022/07/20 07:51:20;;;;;;;9.93;4.05;;;41.40;57.40;;;;;;5062657;28;20043;-66
2022/07/20 07:53:45;;;;;;;7.60;3.50;;;41.60;57.70;;;;;;5066505;28;20469;-64
2022/07/20 07:56:12;;;;;;;7.60;3.90;;;41.80;58.50;;;;;;5056377;28;20338;-64
2022/07/20 07:58:38;;;;;;;8.60;3.80;;;42.00;58.00;;;;;;5053595;28;20834;-64
2022/07/20 08:01:04;;;;;;;7.70;4.38;;;41.90;58.10;;;;;;5053921;28;20041;-64
2022/07/20 08:03:30;;;;;;;10.15;4.40;;;41.70;58.30;;;;;;5054576;28;20052;-64
2022/07/20 08:05:55;;;;;;;15.98;5.07;;;41.50;58.80;;;;;;5058711;28;20069;-64
2022/07/20 08:08:21;;;;;;;8.30;4.90;;;41.40;59.10;;;;;;5051478;28;20398;-67
2022/07/20 08:10:47;;;;;;;9.88;5.00;;;41.50;59.20;;;;;;5057105;28;20056;-64
2022/07/20 08:13:13;;;;;;;9.55;5.05;;;41.50;59.50;;;;;;5055025;28;20552;-64
2022/07/20 08:15:39;;;;;;;11.63;5.28;;;41.60;59.50;;;;;;5060262;28;20061;-64
2022/07/20 08:18:05;;;;;;;9.52;5.13;;;41.30;59.60;;;;;;5058716;28;20049;-63
2022/07/20 08:20:31;;;;;;;8.15;5.35;;;41.00;60.70;;;;;;5062029;28;20112;-64
2022/07/20 08:22:57;;;;;;;8.48;4.95;;;41.00;60.50;;;;;;5070785;28;20501;-63
2022/07/20 08:25:23;;;;;;;8.98;5.47;;;41.30;61.00;;;;;;5071806;28;20135;-65
2022/07/20 08:27:49;;;;;;;12.05;5.97;;;41.60;61.40;;;;;;5071925;28;20075;-64
2022/07/20 08:30:16;;;;;;;8.57;6.40;;;41.70;61.10;;;;;;5071060;28;20044;-64
2022/07/20 08:32:42;;;;;;;11.35;6.22;;;41.90;61.40;;;;;;5072218;28;20105;-64
2022/07/20 08:35:10;;;;;;;11.13;6.35;;;42.20;61.40;;;;;;5070763;28;20508;-65
2022/07/20 08:37:39;;;;;;;11.27;6.18;;;42.30;61.20;;;;;;5069494;28;20046;-65
2022/07/20 08:40:06;;;;;;;13.10;6.72;;;42.40;61.60;;;;;;5071166;28;20498;-62
2022/07/20 08:42:32;;;;;;;13.35;7.10;;;42.20;61.50;;;;;;5070756;28;20058;-63
2022/07/20 08:44:58;;;;;;;13.77;6.88;;;42.10;61.70;;;;;;5070980;28;20051;-64
2022/07/20 08:47:28;;;;;;;10.60;6.50;;;41.80;61.80;;;;;;5055476;28;20049;-65
2022/07/20 08:49:54;;;;;;;13.38;7.80;;;41.90;62.60;;;;;;5062078;28;20044;-65
2022/07/20 08:52:20;;;;;;;15.25;7.90;;;42.00;62.60;;;;;;5063683;28;20142;-65
2022/07/20 08:54:46;;;;;;;15.02;7.70;;;41.90;62.60;;;;;;5050422;28;20494;-66
2022/07/20 08:57:16;;;;;;;17.38;8.90;;;42.00;63.30;;;;;;5060798;28;20050;-66
2022/07/20 08:59:43;;;;;;;13.27;9.23;;;42.00;63.00;;;;;;5062536;28;20167;-65
2022/07/20 09:02:10;;;;;;;16.00;10.02;;;42.00;63.00;;;;;;5063261;28;20124;-64
2022/07/20 09:04:56;;;;;;;16.02;9.52;;;41.90;63.20;;;;;;5061845;28;20056;-64
2022/07/20 09:07:38;;;;;;;17.42;9.88;;;41.90;63.60;;;;;;5054574;28;20048;-63
2022/07/20 09:10:22;;;;;;;17.92;10.77;;;41.60;63.90;;;;;;5063170;28;20163;-64
2022/07/20 09:13:04;;;;;;;19.40;11.60;;;41.40;64.20;;;;;;5051953;28;20120;-64
2022/07/20 09:15:36;;;;;;;16.10;11.63;;;41.20;64.90;;;;;;5057478;28;20048;-64
2022/07/20 09:18:14;;;;;;;15.82;11.35;;;40.80;65.10;;;;;;5069324;28;20056;-64
2022/07/20 09:21:04;;;;;;;16.70;11.90;;;40.80;65.50;;;;;;5054204;28;20102;-64
2022/07/20 09:23:47;;;;;;;16.40;12.02;;;40.80;66.20;;;;;;5050576;28;20041;-65
2022/07/20 09:26:16;;;;;;;14.13;11.73;;;41.00;65.40;;;;;;5052225;28;20094;-64
2022/07/20 09:28:46;;;;;;;17.25;11.95;;;41.00;65.70;;;;;;5063494;28;20083;-64
2022/07/20 09:31:25;;;;;;;15.90;12.50;;;40.80;65.70;;;;;;5070539;28;20429;-67
2022/07/20 09:33:54;;;;;;;25.67;13.57;;;40.50;65.70;;;;;;5052747;28;20465;-64
2022/07/20 09:36:22;;;;;;;21.35;12.88;;;40.40;65.80;;;;;;5051628;28;20069;-64
2022/07/20 09:38:48;;;;;;;19.05;13.23;;;40.20;66.00;;;;;;5062221;28;20059;-64
2022/07/20 09:41:31;;;;;;;19.30;13.88;;;40.10;66.70;;;;;;5070595;28;20047;-65
2022/07/20 09:43:58;;;;;;;24.08;14.27;;;40.00;66.80;;;;;;5071341;28;20046;-64
2022/07/20 09:46:26;;;;;;;24.77;14.07;;;39.70;66.90;;;;;;5071560;28;20263;-64
2022/07/20 09:48:54;;;;;;;20.90;14.50;;;39.70;67.30;;;;;;5070682;28;20564;-64
2022/07/20 09:51:30;;;;;;;19.25;13.60;;;39.40;67.60;;;;;;5050907;28;20037;-64
2022/07/20 09:54:16;;;;;;;20.38;13.30;;;39.30;67.80;;;;;;5070801;28;20547;-64
2022/07/20 09:56:48;;;;;;;22.27;14.77;;;39.20;67.40;;;;;;5070790;28;20048;-65
2022/07/20 09:59:15;;;;;;;18.77;12.87;;;39.10;67.60;;;;;;5071269;28;20119;-65
2022/07/20 10:01:45;;;;;;;19.60;13.18;;;38.70;67.30;;;;;;5050980;28;20060;-64
2022/07/20 10:04:11;;;;;;;15.93;13.10;;;38.50;67.30;;;;;;5069951;28;20052;-64
2022/07/20 10:06:40;;;;;;;24.02;13.65;;;38.20;67.70;;;;;;5070214;28;20409;-63
2022/07/20 10:09:06;;;;;;;22.08;13.00;;;38.00;68.90;;;;;;5069554;28;20505;-63
2022/07/20 10:11:33;;;;;;;19.95;12.95;;;37.70;67.50;;;;;;5062355;28;20493;-64
2022/07/20 10:14:03;;;;;;;20.08;13.25;;;37.50;67.00;;;;;;5069760;28;20071;-64
2022/07/20 10:16:34;;;;;;;16.40;13.75;;;37.20;66.70;;;;;;5070019;28;20385;-63
2022/07/20 10:19:00;;;;;;;19.40;13.07;;;37.10;67.50;;;;;;5069628;28;20049;-64
2022/07/20 10:21:37;;;;;;;17.60;12.15;;;37.20;67.40;;;;;;5070072;28;20056;-63
2022/07/20 10:24:30;;;;;;;16.75;11.80;;;36.70;65.90;;;;;;5070831;28;20045;-64
2022/07/20 10:27:08;;;;;;;16.40;11.10;;;36.20;65.30;;;;;;5050990;28;20045;-63
2022/07/20 10:29:43;;;;;;;12.82;10.52;;;36.00;65.20;;;;;;5064113;28;20110;-64
2022/07/20 10:32:20;;;;;;;14.63;10.70;;;36.00;65.30;;;;;;5070121;28;20115;-64
2022/07/20 10:34:47;;;;;;;16.00;10.20;;;35.80;65.50;;;;;;5069969;28;20478;-63
2022/07/20 10:37:24;;;;;;;17.70;10.73;;;35.50;65.80;;;;;;5057775;28;20129;-64
2022/07/20 10:39:52;;;;;;;14.43;10.07;;;35.30;66.00;;;;;;5058256;28;20055;-63
2022/07/20 10:42:28;;;;;;;15.68;10.65;;;35.10;66.20;;;;;;5067580;28;20079;-63
2022/07/20 10:44:55;;;;;;;16.23;10.68;;;35.10;66.50;;;;;;5056800;28;20044;-63
2022/07/20 10:47:41;;;;;;;15.50;10.68;;;35.10;67.30;;;;;;5070777;28;20048;-63
2022/07/20 10:50:07;;;;;;;15.45;11.07;;;35.10;67.80;;;;;;5050366;28;20084;-63
2022/07/20 10:52:34;;;;;;;16.58;10.40;;;35.10;68.00;;;;;;5063535;28;20413;-63
2022/07/20 10:55:01;;;;;;;17.35;10.45;;;35.30;68.50;;;;;;5070098;28;20049;-63
2022/07/20 10:57:27;;;;;;;17.13;9.35;;;35.30;67.40;;;;;;5069324;28;20060;-63
2022/07/20 11:00:28;;;;;;;15.82;9.35;;;35.40;67.70;;;;;;5070057;28;20048;-63
2022/07/20 11:02:54;;;;;;;13.10;8.80;;;35.30;66.80;;;;;;5055552;28;20144;-63
2022/07/20 11:05:21;;;;;;;14.90;8.70;;;35.10;66.40;;;;;;5069194;28;20059;-63
2022/07/20 11:07:47;;;;;;;13.02;8.88;;;35.10;66.30;;;;;;5070365;28;20482;-63
2022/07/20 11:10:27;;;;;;;13.70;8.43;;;34.80;66.80;;;;;;5070068;28;20041;-63
2022/07/20 11:13:00;;;;;;;12.95;8.50;;;34.70;66.90;;;;;;5069702;28;20604;-63
2022/07/20 11:15:38;;;;;;;;;;;34.60;67.30;;;;;;5063324;28;20052;-63
2022/07/20 11:18:06;;;;;;;12.98;8.02;;;34.60;67.20;;;;;;5056981;28;19916;-63
2022/07/20 11:20:31;;;;;;;11.32;7.82;;;34.60;67.40;;;;;;5052521;28;20127;-63
2022/07/20 11:22:58;;;;;;;16.38;8.65;;;34.50;67.20;;;;;;5069584;28;20115;-63
2022/07/20 11:25:24;;;;;;;13.45;8.27;;;34.50;67.60;;;;;;5049145;28;20119;-63
2022/07/20 11:28:01;;;;;;;14.98;8.27;;;34.50;68.10;;;;;;5065665;28;20040;-63
2022/07/20 11:30:36;;;;;;;13.65;7.60;;;34.60;67.60;;;;;;5070036;28;20136;-64
2022/07/20 11:33:02;;;;;;;15.25;9.52;;;34.60;67.10;;;;;;5069854;28;20048;-64
2022/07/20 11:35:28;;;;;;;11.43;8.20;;;34.50;67.20;;;;;;5069254;28;20040;-63
2022/07/20 11:37:54;;;;;;;14.05;8.48;;;34.50;67.70;;;;;;5054455;28;20055;-66
2022/07/20 11:40:21;;;;;;;10.32;8.02;;;34.40;67.30;;;;;;5062768;28;20115;-64
2022/07/20 11:43:26;;;;;;;13.13;8.10;;;34.40;67.90;;;;;;5070620;28;20073;-64
2022/07/20 11:45:52;;;;;;;16.00;8.50;;;34.50;68.10;;;;;;5031296;28;20053;-63
2022/07/20 11:48:21;;;;;;;13.05;9.07;;;34.60;68.80;;;;;;5043597;28;20458;-63
2022/07/20 11:50:47;;;;;;;12.07;8.55;;;34.50;67.20;;;;;;5050607;28;20110;-63
2022/07/20 11:53:31;;;;;;;11.30;8.40;;;34.60;67.80;;;;;;5062594;28;20393;-65
2022/07/20 11:55:59;;;;;;;14.00;8.55;;;34.60;66.90;;;;;;5063492;28;20084;-67
2022/07/20 11:58:26;;;;;;;18.33;8.18;;;34.60;67.70;;;;;;5053237;28;20055;-62
2022/07/20 12:00:52;;;;;;;12.40;7.50;;;34.50;66.60;;;;;;5053147;28;20045;-62
2022/07/20 12:03:22;;;;;;;12.50;7.88;;;34.40;66.90;;;;;;5051006;28;20045;-63
2022/07/20 12:05:47;;;;;;;13.50;7.85;;;34.40;66.70;;;;;;5065564;28;20113;-62
2022/07/20 12:08:14;;;;;;;12.70;7.88;;;34.30;67.30;;;;;;5066809;28;20056;-64
2022/07/20 12:10:44;;;;;;;12.52;7.10;;;34.30;67.20;;;;;;5061318;28;20486;-64
2022/07/20 12:13:10;;;;;;;9.77;6.43;;;34.00;66.20;;;;;;5052362;28;20048;-62
2022/07/20 12:15:36;;;;;;;10.88;5.57;;;34.00;66.60;;;;;;5055393;28;20063;-62
2022/07/20 12:18:02;;;;;;;12.18;6.60;;;34.00;66.40;;;;;;5056980;28;20478;-63
2022/07/20 12:20:28;;;;;;;12.13;6.00;;;34.00;66.60;;;;;;5052883;28;20041;-62
2022/07/20 12:23:04;;;;;;;11.35;5.82;;;34.00;66.40;;;;;;5066659;28;20048;-63
2022/07/20 12:25:48;;;;;;;14.35;6.90;;;34.00;66.00;;;;;;5062120;28;20039;-62
2022/07/20 12:28:31;;;;;;;10.20;5.78;;;34.00;66.40;;;;;;5058847;28;20065;-63
2022/07/20 12:31:17;;;;;;;14.95;6.32;;;33.80;66.90;;;;;;5051359;28;20068;-63
2022/07/20 12:34:06;;;;;;;10.52;6.50;;;33.80;66.80;;;;;;5062058;28;20048;-63
2022/07/20 12:36:47;;;;;;;10.52;6.68;;;33.90;66.30;;;;;;5062632;28;20040;-63
2022/07/20 12:39:33;;;;;;;9.68;6.63;;;33.90;65.60;;;;;;5071095;28;20045;-62
2022/07/20 12:42:11;;;;;;;9.20;7.10;;;33.60;64.00;;;;;;5072307;28;20050;-62
2022/07/20 12:44:38;;;;;;;11.27;7.00;;;33.50;64.40;;;;;;5071992;28;20127;-62
2022/07/20 12:47:05;;;;;;;11.05;6.95;;;33.50;64.70;;;;;;5071020;28;20494;-67